Time;durP1;ratioP1;P1;durP2;ratioP2;P2;SDS_P1;SDS_P2;PMS_P1;PMS_P2;Temp;Humidity;BMP_temperature;BMP_pressure;BME280_temperature;BME280_humidity;BME280_pressure;Samples;Min_cycle;Max_cycle;Signal;HPM_P1;HPM_P2
2021/08/22 00:01:24;;;;;;;13.00;8.98;;;;;;;15.92;84.25;93474.97;5110269;28;20599;-85
2021/08/22 00:03:52;;;;;;;13.02;8.40;;;;;;;15.82;84.83;93470.41;5110990;27;20091;-84
2021/08/22 00:06:19;;;;;;;10.90;8.40;;;;;;;15.43;84.20;93400.41;5109920;28;20051;-85
2021/08/22 00:08:47;;;;;;;8.35;7.47;;;;;;;15.92;84.28;93477.53;5110458;28;20492;-85
2021/08/22 00:11:14;;;;;;;10.30;8.23;;;;;;;15.89;83.86;93463.25;5110475;28;20058;-85
2021/08/22 00:13:41;;;;;;;12.52;8.48;;;;;;;15.94;83.31;93475.56;5110376;28;20059;-85
2021/08/22 00:16:08;;;;;;;9.38;7.93;;;;;;;15.94;83.41;93485.13;5110034;28;20039;-85
2021/08/22 00:18:35;;;;;;;13.68;8.20;;;;;;;15.88;83.38;93481.66;5109975;28;20047;-84
2021/08/22 00:21:03;;;;;;;11.10;8.85;;;;;;;15.94;83.16;93487.72;5110093;28;20052;-83
2021/08/22 00:23:32;;;;;;;17.70;9.43;;;;;;;15.90;83.00;93493.34;5110212;28;20058;-84
2021/08/22 00:25:58;;;;;;;10.93;8.30;;;;;;;15.92;82.83;93490.50;5109946;28;20047;-84
2021/08/22 00:28:25;;;;;;;9.20;7.10;;;;;;;15.83;82.36;93497.09;5110141;28;20044;-83
2021/08/22 00:30:52;;;;;;;9.85;7.47;;;;;;;15.76;82.59;93494.66;5109796;28;20058;-83
2021/08/22 00:33:19;;;;;;;9.10;7.53;;;;;;;15.61;82.50;93469.31;5109810;28;20050;-84
2021/08/22 00:35:46;;;;;;;8.98;7.63;;;;;;;15.69;82.82;93494.81;5109802;28;20043;-84
2021/08/22 00:38:14;;;;;;;8.20;7.22;;;;;;;15.60;82.54;93481.47;5110006;28;20051;-84
2021/08/22 00:40:41;;;;;;;9.32;7.97;;;;;;;15.49;83.11;93474.53;5109806;28;20054;-84
2021/08/22 00:43:08;;;;;;;10.55;8.30;;;;;;;15.60;82.71;93481.47;5109741;28;20043;-84
2021/08/22 00:45:37;;;;;;;9.13;7.25;;;;;;;15.66;82.38;93487.53;5109945;28;20056;-84
2021/08/22 00:48:05;;;;;;;12.35;8.23;;;;;;;15.63;82.42;93480.22;5109954;28;20051;-84
2021/08/22 00:50:33;;;;;;;10.55;7.55;;;;;;;15.56;82.67;93474.41;5109930;28;20047;-84
2021/08/22 00:53:01;;;;;;;10.40;7.50;;;;;;;15.41;82.27;93460.19;5108888;28;20128;-83
2021/08/22 00:55:30;;;;;;;7.28;6.38;;;;;;;15.34;82.09;93451.78;5110449;28;20415;-82
2021/08/22 00:57:57;;;;;;;9.30;7.25;;;;;;;15.54;81.81;93479.00;5110358;28;20062;-83
2021/08/22 01:00:24;;;;;;;10.50;7.22;;;;;;;15.36;82.17;93463.47;5110411;28;20056;-83
2021/08/22 01:02:59;;;;;;;12.20;7.43;;;;;;;15.32;82.61;93474.53;5110276;28;20044;-83
2021/08/22 01:05:36;;;;;;;10.18;7.13;;;;;;;15.31;82.45;93471.16;5110453;28;20462;-83
2021/08/22 01:08:13;;;;;;;8.77;6.97;;;;;;;15.29;82.35;93478.38;5110432;28;20044;-83
2021/08/22 01:10:45;;;;;;;9.00;6.78;;;;;;;15.16;82.52;93466.50;5110025;28;20051;-83
2021/08/22 01:13:16;;;;;;;10.27;6.88;;;;;;;15.23;82.86;93487.06;5110279;28;20052;-82
2021/08/22 01:15:47;;;;;;;9.55;6.85;;;;;;;15.27;82.40;93484.78;5109877;28;20062;-82
2021/08/22 01:18:18;;;;;;;11.52;6.82;;;;;;;15.27;82.52;93495.16;5109899;28;20051;-82
2021/08/22 01:20:54;;;;;;;10.90;7.05;;;;;;;15.30;82.24;93490.28;5109322;28;20046;-82
2021/08/22 01:23:21;;;;;;;9.18;6.10;;;;;;;15.35;81.72;93494.75;5109203;28;20054;-83
2021/08/22 01:25:50;;;;;;;12.20;6.47;;;;;;;15.33;81.64;93491.63;5109520;28;20047;-83
2021/08/22 01:28:18;;;;;;;9.20;6.90;;;;;;;15.34;81.85;93491.41;5109221;28;20058;-83
2021/08/22 01:30:47;;;;;;;7.72;5.95;;;;;;;15.27;82.28;93480.38;5109583;28;20051;-84
2021/08/22 01:33:18;;;;;;;14.98;7.85;;;;;;;15.19;82.81;93481.53;5109483;28;20043;-83
2021/08/22 01:35:47;;;;;;;10.85;7.47;;;;;;;15.18;82.68;93479.97;5109222;28;20051;-83
2021/08/22 01:38:15;;;;;;;9.07;6.80;;;;;;;14.95;83.08;93462.75;5109259;28;20475;-84
2021/08/22 01:40:42;;;;;;;13.10;6.90;;;;;;;15.04;83.26;93465.75;5109464;28;20054;-83
2021/08/22 01:43:12;;;;;;;13.55;7.28;;;;;;;15.06;83.52;93474.06;5109338;28;20051;-83
2021/08/22 01:45:40;;;;;;;12.65;7.35;;;;;;;14.95;83.63;93468.69;5109014;28;20039;-83
2021/08/22 01:48:08;;;;;;;13.23;6.45;;;;;;;14.99;84.10;93478.59;5109908;28;20130;-83
2021/08/22 01:50:36;;;;;;;11.27;6.50;;;;;;;14.84;83.53;93461.75;5109697;28;20090;-83
2021/08/22 01:53:05;;;;;;;13.43;7.07;;;;;;;14.72;83.90;93469.50;5109916;28;20052;-84
2021/08/22 01:55:33;;;;;;;18.58;7.18;;;;;;;14.87;83.80;93483.78;5109890;28;20055;-83
2021/08/22 01:58:00;;;;;;;11.30;7.13;;;;;;;14.72;84.27;93477.25;5109490;28;20051;-83
2021/08/22 02:00:26;;;;;;;8.55;6.63;;;;;;;14.83;84.07;93478.28;5109801;28;20048;-84
2021/08/22 02:03:05;;;;;;;8.88;7.15;;;;;;;14.61;85.95;93478.88;5109683;28;20171;-84
2021/08/22 02:05:37;;;;;;;9.05;7.57;;;;;;;14.55;86.45;93477.19;5110776;28;20138;-83
2021/08/22 02:08:10;;;;;;;14.75;8.20;;;;;;;14.62;86.01;93477.09;5113160;27;20047;-83
2021/08/22 02:10:41;;;;;;;12.60;7.60;;;;;;;14.60;85.50;93474.72;5113423;28;20144;-85
2021/08/22 02:13:11;;;;;;;9.88;7.55;;;;;;;14.64;85.33;93475.84;5113358;28;20047;-84
2021/08/22 02:15:41;;;;;;;9.70;7.25;;;;;;;14.27;85.84;93439.94;5112960;28;20059;-85
2021/08/22 02:18:12;;;;;;;9.07;7.43;;;;;;;14.53;85.88;93477.41;5112759;27;20167;-85
2021/08/22 02:20:41;;;;;;;9.93;7.07;;;;;;;14.48;86.27;93476.53;5112917;28;20104;-83
2021/08/22 02:23:09;;;;;;;8.52;7.05;;;;;;;14.49;85.63;93470.34;5112798;28;20051;-83
2021/08/22 02:25:37;;;;;;;9.13;7.22;;;;;;;14.56;85.22;93471.81;5113111;28;20051;-82
2021/08/22 02:28:05;;;;;;;8.77;7.18;;;;;;;14.62;85.05;93479.66;5112968;28;20051;-83
2021/08/22 02:30:34;;;;;;;7.55;6.75;;;;;;;14.65;84.72;93487.75;5112106;28;20058;-82
2021/08/22 02:33:01;;;;;;;11.40;7.28;;;;;;;14.55;84.86;93483.13;5111940;28;20130;-83
2021/08/22 02:35:28;;;;;;;9.18;6.90;;;;;;;14.60;84.58;93487.66;5112091;28;20051;-83
2021/08/22 02:37:56;;;;;;;9.73;6.57;;;;;;;14.49;85.21;93486.63;5112006;28;20052;-83
2021/08/22 02:40:23;;;;;;;10.18;7.15;;;;;;;14.48;84.74;93479.13;5112223;28;20063;-83
2021/08/22 02:42:50;;;;;;;7.93;6.50;;;;;;;14.52;84.54;93490.56;5111859;28;20504;-83
2021/08/22 02:45:17;;;;;;;8.98;6.80;;;;;;;14.42;85.14;93491.94;5111790;28;20052;-83
2021/08/22 02:47:44;;;;;;;8.85;7.40;;;;;;;14.38;85.42;93493.41;5112042;28;20052;-83
2021/08/22 02:50:11;;;;;;;9.60;7.20;;;;;;;14.29;85.96;93490.38;5111838;28;20051;-83
2021/08/22 02:52:38;;;;;;;8.20;7.15;;;;;;;14.30;85.92;93489.34;5111858;28;20062;-83
2021/08/22 02:55:07;;;;;;;9.68;7.07;;;;;;;14.25;85.33;93483.28;5111539;28;20047;-83
2021/08/22 02:57:34;;;;;;;8.48;6.38;;;;;;;14.24;85.27;93482.50;5111977;28;20051;-83
2021/08/22 03:00:00;;;;;;;9.88;6.60;;;;;;;14.37;85.10;93486.66;5111581;28;20051;-83
2021/08/22 03:02:27;;;;;;;10.38;6.40;;;;;;;14.36;84.65;93492.84;5111515;28;20040;-83
2021/08/22 03:04:54;;;;;;;11.50;7.00;;;;;;;14.20;84.79;93470.28;5111333;27;20518;-83
2021/08/22 03:07:21;;;;;;;8.15;6.32;;;;;;;14.37;84.89;93497.00;5111549;28;20047;-83
2021/08/22 03:09:48;;;;;;;10.52;6.80;;;;;;;14.27;85.24;93500.13;5111557;28;20044;-83
2021/08/22 03:12:16;;;;;;;9.30;6.90;;;;;;;14.30;85.12;93502.28;5105515;28;20048;-83
2021/08/22 03:14:43;;;;;;;11.18;6.97;;;;;;;14.21;84.84;93477.00;5104717;28;20416;-83
2021/08/22 03:17:10;;;;;;;9.52;6.70;;;;;;;14.32;84.70;93494.31;5096192;28;20052;-83
2021/08/22 03:19:36;;;;;;;12.00;7.35;;;;;;;14.34;84.31;93502.59;5091023;28;20431;-83
2021/08/22 03:22:04;;;;;;;9.75;6.35;;;;;;;14.23;84.66;93485.31;5090692;28;20040;-83
2021/08/22 03:24:31;;;;;;;11.23;7.28;;;;;;;14.20;85.37;93502.06;5090653;28;20052;-83
2021/08/22 03:26:58;;;;;;;8.30;7.25;;;;;;;14.19;85.91;93492.72;5090801;28;20152;-84
2021/08/22 03:29:26;;;;;;;13.25;7.47;;;;;;;14.24;85.38;93504.97;5090511;28;20493;-83
2021/08/22 03:31:53;;;;;;;13.27;8.00;;;;;;;14.20;85.92;93504.63;5090830;28;20044;-83
2021/08/22 03:34:20;;;;;;;13.48;7.38;;;;;;;14.18;86.06;93498.91;5090605;28;20070;-83
2021/08/22 03:36:46;;;;;;;13.00;7.82;;;;;;;14.11;86.69;93496.44;5090886;28;20488;-83
2021/08/22 03:39:13;;;;;;;15.63;8.10;;;;;;;13.95;86.25;93472.06;5090697;28;20060;-82
2021/08/22 03:41:40;;;;;;;12.45;8.25;;;;;;;14.12;86.68;93500.59;5090226;28;20492;-83
2021/08/22 03:44:08;;;;;;;10.50;7.72;;;;;;;14.06;86.89;93504.06;5090623;28;20052;-83
2021/08/22 03:46:37;;;;;;;13.23;7.72;;;;;;;13.99;87.43;93509.34;5090213;28;20079;-85
2021/08/22 03:49:03;;;;;;;18.67;9.10;;;;;;;13.66;87.75;93460.81;5090113;28;20055;-85
2021/08/22 03:51:30;;;;;;;13.48;7.97;;;;;;;13.85;87.12;93472.59;5090588;28;20060;-83
2021/08/22 03:53:57;;;;;;;15.55;9.18;;;;;;;13.96;86.89;93491.72;5090229;28;20056;-82
2021/08/22 03:56:24;;;;;;;10.57;8.05;;;;;;;14.07;87.21;93512.63;5090193;28;20587;-83
2021/08/22 03:58:51;;;;;;;14.00;8.55;;;;;;;14.08;87.27;93519.34;5089857;28;20549;-83
2021/08/22 04:01:18;;;;;;;14.23;8.25;;;;;;;14.16;86.55;93509.47;5089950;28;20668;-83
2021/08/22 04:03:46;;;;;;;15.55;7.80;;;;;;;14.16;87.05;93516.41;5090352;28;20052;-82
2021/08/22 04:06:13;;;;;;;13.80;8.18;;;;;;;14.19;87.06;93523.72;5089879;28;20048;-83
2021/08/22 04:08:40;;;;;;;14.25;8.55;;;;;;;14.21;86.88;93516.53;5092788;28;20118;-82
2021/08/22 04:11:08;;;;;;;14.50;8.98;;;;;;;14.27;86.55;93517.44;5097864;28;20135;-83
2021/08/22 04:13:35;;;;;;;20.45;9.70;;;;;;;14.33;86.82;93531.25;5098859;28;20040;-82
2021/08/22 04:16:02;;;;;;;16.92;9.25;;;;;;;14.36;86.81;93523.88;5099411;28;20103;-81
2021/08/22 04:18:29;;;;;;;13.32;8.90;;;;;;;14.23;86.68;93490.47;5103329;28;20043;-82
2021/08/22 04:20:57;;;;;;;14.63;8.93;;;;;;;14.50;86.58;93521.03;5098796;28;20051;-81
2021/08/22 04:23:24;;;;;;;15.90;8.57;;;;;;;14.39;86.13;93509.69;5101620;28;20097;-82
2021/08/22 04:25:52;;;;;;;15.10;9.27;;;;;;;14.60;85.56;93534.19;5112971;27;20043;-81
2021/08/22 04:28:19;;;;;;;17.02;10.88;;;;;;;14.65;85.52;93530.91;5126307;27;20042;-81
2021/08/22 04:30:46;;;;;;;30.58;23.63;;;;;;;14.53;86.92;93533.50;5109701;28;20050;-81
2021/08/22 04:33:12;;;;;;;37.67;25.38;;;;;;;14.53;86.63;93536.88;5118325;27;20047;-81
2021/08/22 04:35:40;;;;;;;111.43;77.93;;;;;;;14.61;86.67;93540.91;5131115;27;20046;-82
2021/08/22 04:38:08;;;;;;;50.88;35.95;;;;;;;14.75;86.50;93530.34;5130517;27;20055;-81
2021/08/22 04:40:37;;;;;;;23.48;15.23;;;;;;;14.86;85.85;93526.19;5130511;27;20051;-81
2021/08/22 04:43:05;;;;;;;21.00;11.32;;;;;;;14.97;85.05;93533.13;5103504;28;20052;-81
2021/08/22 04:45:32;;;;;;;30.30;11.95;;;;;;;15.11;84.54;93536.25;5091154;28;20044;-82
2021/08/22 04:47:59;;;;;;;45.15;14.77;;;;;;;15.13;83.88;93531.63;5109880;28;20063;-82
2021/08/22 04:50:26;;;;;;;78.93;42.05;;;;;;;15.28;83.92;93538.88;5109533;28;20047;-82
2021/08/22 04:52:52;;;;;;;33.20;18.23;;;;;;;15.34;83.47;93532.00;5109597;28;20051;-82
2021/08/22 04:55:21;;;;;;;31.83;16.15;;;;;;;15.45;83.18;93540.75;5109488;28;20428;-82
2021/08/22 04:57:48;;;;;;;27.73;13.32;;;;;;;15.53;82.74;93542.16;5109967;28;20058;-82
2021/08/22 05:00:16;;;;;;;20.98;10.73;;;;;;;15.68;82.42;93542.44;5109729;28;20080;-82
2021/08/22 05:02:42;;;;;;;28.52;11.07;;;;;;;15.78;81.54;93541.81;5109482;28;20048;-83
2021/08/22 05:05:10;;;;;;;14.82;9.35;;;;;;;15.85;81.60;93545.06;5110024;28;20051;-82
2021/08/22 05:07:37;;;;;;;17.85;8.80;;;;;;;15.82;80.68;93526.59;5109414;28;20053;-82
2021/08/22 05:10:04;;;;;;;24.25;9.13;;;;;;;16.02;80.76;93545.09;5109341;28;20055;-82
2021/08/22 05:12:33;;;;;;;14.32;8.48;;;;;;;16.11;80.46;93542.91;5109737;28;20121;-82
2021/08/22 05:15:00;;;;;;;40.15;12.05;;;;;;;16.20;79.84;93540.69;5109289;28;20052;-81
2021/08/22 05:17:27;;;;;;;15.57;8.85;;;;;;;16.34;79.55;93541.16;5109451;28;20054;-82
2021/08/22 05:19:53;;;;;;;12.90;7.97;;;;;;;16.22;79.22;93510.16;5109217;28;20051;-83
2021/08/22 05:22:20;;;;;;;14.82;8.20;;;;;;;16.57;78.73;93549.78;5109435;28;20048;-84
2021/08/22 05:24:47;;;;;;;13.75;8.27;;;;;;;16.68;78.72;93546.28;5109665;28;20051;-83
2021/08/22 05:27:14;;;;;;;12.63;8.45;;;;;;;16.80;78.24;93546.19;5109581;28;20097;-82
2021/08/22 05:29:42;;;;;;;15.73;8.13;;;;;;;16.93;77.51;93552.06;5109357;28;20059;-83
2021/08/22 05:32:09;;;;;;;17.13;9.02;;;;;;;16.99;77.37;93542.53;5109236;28;20098;-83
2021/08/22 05:34:36;;;;;;;8.80;6.78;;;;;;;17.06;76.38;93550.94;5109172;28;20048;-82
2021/08/22 05:37:03;;;;;;;16.52;8.43;;;;;;;17.09;76.10;93545.28;5109490;28;20059;-83
2021/08/22 05:39:30;;;;;;;13.82;8.40;;;;;;;17.12;75.40;93552.56;5107146;28;20063;-83
2021/08/22 05:41:57;;;;;;;14.98;9.88;;;;;;;16.93;76.11;93532.09;5114221;27;20965;-83
2021/08/22 05:44:23;;;;;;;23.38;12.43;;;;;;;17.02;75.69;93535.06;5125951;27;20055;-83
2021/08/22 05:46:54;;;;;;;20.30;10.57;;;;;;;17.12;76.82;93542.19;5094292;28;20044;-83
2021/08/22 05:49:21;;;;;;;18.67;10.25;;;;;;;17.35;75.07;93546.34;5096247;28;20048;-83
2021/08/22 05:51:48;;;;;;;23.08;11.52;;;;;;;17.61;74.16;93549.22;5100032;28;20092;-83
2021/08/22 05:54:15;;;;;;;22.10;11.90;;;;;;;17.68;73.59;93533.44;5101522;28;20151;-83
2021/08/22 05:56:54;;;;;;;24.35;12.75;;;;;;;17.46;72.27;93469.34;5103256;28;20051;-83
2021/08/22 05:59:27;;;;;;;29.20;14.43;;;;;;;18.29;71.65;93547.22;5092699;28;20063;-83
2021/08/22 06:01:55;;;;;;;37.33;19.08;;;;;;;18.48;70.34;93545.00;5097567;28;20043;-83
2021/08/22 06:04:23;;;;;;;52.65;27.90;;;;;;;18.49;70.38;93549.16;5102870;28;20050;-84
2021/08/22 06:06:50;;;;;;;45.47;23.20;;;;;;;18.43;70.71;93542.38;5097494;28;20497;-84
2021/08/22 06:09:17;;;;;;;42.40;21.85;;;;;;;18.58;69.23;93520.88;5095747;28;20050;-84
2021/08/22 06:11:44;;;;;;;38.20;21.63;;;;;;;19.00;68.09;93549.69;5109522;27;20039;-84
2021/08/22 06:14:11;;;;;;;36.97;19.17;;;;;;;19.27;66.65;93543.56;5112518;28;20047;-84
2021/08/22 06:16:38;;;;;;;34.60;17.83;;;;;;;19.39;64.84;93525.13;5112095;28;20043;-83
2021/08/22 06:19:06;;;;;;;34.03;17.73;;;;;;;19.63;64.29;93522.84;5112195;28;20514;-84
2021/08/22 06:21:33;;;;;;;28.30;14.57;;;;;;;19.67;62.75;93533.53;5112137;28;20048;-83
2021/08/22 06:24:00;;;;;;;27.45;13.35;;;;;;;20.03;61.53;93547.41;5112289;28;20120;-83
2021/08/22 06:26:27;;;;;;;27.00;14.13;;;;;;;19.64;62.41;93532.22;5112411;28;20047;-84
2021/08/22 06:28:54;;;;;;;30.20;14.02;;;;;;;20.11;61.58;93533.06;5112192;28;20048;-84
2021/08/22 06:31:22;;;;;;;25.15;12.35;;;;;;;19.24;63.24;93542.25;5112140;28;20048;-84
2021/08/22 06:33:48;;;;;;;23.77;11.85;;;;;;;19.43;64.48;93539.19;5128049;27;20050;-84
2021/08/22 06:36:17;;;;;;;23.23;12.68;;;;;;;19.75;63.03;93515.53;5132995;27;20531;-85
2021/08/22 06:38:44;;;;;;;28.15;12.43;;;;;;;19.90;61.86;93519.19;5132784;27;20051;-86
2021/08/22 06:41:11;;;;;;;42.20;25.52;;;;;;;19.98;61.72;93500.47;5132527;27;20051;-85
2021/08/22 06:43:38;;;;;;;24.27;12.27;;;;;;;19.66;61.71;93519.69;5132646;27;20577;-82
2021/08/22 06:46:05;;;;;;;22.02;11.73;;;;;;;19.97;61.31;93534.63;5132589;27;20055;-84
2021/08/22 06:48:31;;;;;;;19.27;10.55;;;;;;;20.16;60.64;93491.34;5132472;27;20043;-84
2021/08/22 06:50:58;;;;;;;21.60;10.32;;;;;;;20.39;59.18;93528.34;5131759;27;20058;-83
2021/08/22 06:53:27;;;;;;;21.02;10.73;;;;;;;20.88;58.54;93534.00;5132090;27;20124;-82
2021/08/22 06:55:53;;;;;;;15.73;9.20;;;;;;;21.14;56.95;93543.56;5132464;27;20050;-82
2021/08/22 06:58:21;;;;;;;17.83;8.35;;;;;;;21.08;55.80;93542.81;5132262;27;20067;-82
2021/08/22 07:00:48;;;;;;;16.00;8.73;;;;;;;21.15;56.13;93532.09;5131850;27;20061;-82
2021/08/22 07:03:15;;;;;;;19.05;9.27;;;;;;;21.49;54.67;93544.47;5125486;27;20457;-82
2021/08/22 07:05:42;;;;;;;14.93;7.88;;;;;;;20.77;56.29;93548.09;5109489;27;20048;-83
2021/08/22 07:08:08;;;;;;;18.63;7.47;;;;;;;21.15;55.50;93545.91;5110190;28;20044;-82
2021/08/22 07:10:37;;;;;;;11.98;6.45;;;;;;;21.25;54.00;93539.09;5111658;28;20048;-82
2021/08/22 07:13:04;;;;;;;13.40;6.72;;;;;;;21.17;54.03;93551.66;5111536;28;20051;-82
2021/08/22 07:15:31;;;;;;;9.35;5.70;;;;;;;21.11;53.07;93546.72;5111572;28;20044;-81
2021/08/22 07:17:58;;;;;;;15.45;6.30;;;;;;;21.53;53.28;93529.81;5111392;28;20031;-82
2021/08/22 07:20:24;;;;;;;11.95;6.40;;;;;;;21.74;51.76;93551.41;5111094;28;20052;-82
2021/08/22 07:22:51;;;;;;;9.45;4.82;;;;;;;21.98;51.70;93542.88;5111165;28;20054;-82
2021/08/22 07:25:20;;;;;;;10.52;4.70;;;;;;;22.35;49.58;93524.28;5111149;28;20047;-82
2021/08/22 07:27:49;;;;;;;12.20;5.45;;;;;;;22.75;49.94;93545.13;5110973;28;20047;-82
2021/08/22 07:30:18;;;;;;;11.50;5.32;;;;;;;22.02;49.86;93516.94;5111077;28;20040;-82
2021/08/22 07:32:45;;;;;;;11.52;6.32;;;;;;;22.08;51.04;93544.63;5110969;28;20059;-81
2021/08/22 07:35:12;;;;;;;11.85;6.45;;;;;;;22.07;51.12;93537.06;5110991;28;20039;-82
2021/08/22 07:37:39;;;;;;;9.55;5.70;;;;;;;22.35;50.09;93529.50;5110877;28;20560;-81
2021/08/22 07:40:07;;;;;;;11.35;5.75;;;;;;;23.02;51.12;93544.59;5110894;28;20059;-82
2021/08/22 07:42:34;;;;;;;15.27;6.25;;;;;;;23.52;50.26;93521.72;5110683;28;20507;-82
2021/08/22 07:45:02;;;;;;;11.80;6.18;;;;;;;23.74;47.19;93529.78;5110489;28;20063;-82
2021/08/22 07:47:29;;;;;;;15.68;6.40;;;;;;;23.09;48.84;93547.63;5110899;28;20051;-82
2021/08/22 07:49:56;;;;;;;16.50;6.70;;;;;;;23.33;49.43;93541.59;5110470;28;20052;-82
2021/08/22 07:52:24;;;;;;;10.05;6.20;;;;;;;23.91;47.18;93535.59;5110629;28;20047;-83
2021/08/22 07:54:51;;;;;;;10.57;5.32;;;;;;;24.10;46.25;93496.22;5110680;28;20563;-87
2021/08/22 07:57:18;;;;;;;9.20;5.78;;;;;;;24.45;46.12;93507.22;5110161;28;20087;-88
2021/08/22 07:59:45;;;;;;;10.40;5.40;;;;;;;24.59;45.64;93528.22;5110299;28;20059;-87
2021/08/22 08:02:13;;;;;;;20.40;12.48;;;;;;;24.61;44.15;93476.19;5110653;28;20055;-87
2021/08/22 08:04:40;;;;;;;11.45;6.50;;;;;;;24.74;44.06;93510.63;5110371;28;20055;-89
2021/08/22 08:07:07;;;;;;;11.85;6.35;;;;;;;25.11;43.93;93502.84;5110166;28;20040;-87
2021/08/22 08:09:36;;;;;;;10.02;5.20;;;;;;;25.31;43.54;93520.03;5110432;28;20051;-86
2021/08/22 08:12:04;;;;;;;8.82;5.00;;;;;;;24.83;43.25;93469.50;5110060;28;20055;-87
2021/08/22 08:14:31;;;;;;;14.57;5.18;;;;;;;25.20;42.64;93480.84;5110369;28;20052;-87
2021/08/22 08:16:58;;;;;;;12.02;5.50;;;;;;;25.32;42.91;93522.38;5110190;28;20055;-89
2021/08/22 08:19:26;;;;;;;10.73;5.35;;;;;;;25.01;43.05;93461.78;5110340;28;20051;-89
2021/08/22 08:21:53;;;;;;;7.38;4.32;;;;;;;25.03;43.73;93506.94;5109930;28;20048;-88
2021/08/22 08:24:20;;;;;;;9.63;4.93;;;;;;;25.51;42.71;93510.19;5110037;28;20089;-89
2021/08/22 08:26:47;;;;;;;7.53;5.22;;;;;;;25.61;42.38;93510.00;5110083;28;20108;-88
2021/08/22 08:29:14;;;;;;;11.25;6.05;;;;;;;25.45;43.31;93512.91;5110002;28;20051;-87
2021/08/22 08:31:40;;;;;;;11.30;6.13;;;;;;;25.93;43.16;93517.97;5100215;28;20062;-88
2021/08/22 08:34:08;;;;;;;15.75;10.60;;;;;;;25.61;42.06;93452.13;5101628;27;20052;-89
2021/08/22 08:36:36;;;;;;;36.00;26.08;;;;;;;25.34;41.02;93445.84;5099865;28;20134;-88
2021/08/22 08:39:03;;;;;;;12.93;5.50;;;;;;;25.52;41.73;93459.13;5097736;28;20577;-88
2021/08/22 08:41:30;;;;;;;7.28;5.10;;;;;;;25.48;41.77;93509.72;5100150;28;20628;-88
2021/08/22 08:43:59;;;;;;;9.35;5.15;;;;;;;25.75;42.72;93502.81;5094653;28;20063;-89
2021/08/22 08:46:27;;;;;;;9.05;5.30;;;;;;;26.32;41.46;93511.28;5089157;28;20071;-89
2021/08/22 08:48:56;;;;;;;9.13;4.88;;;;;;;25.82;40.44;93465.56;5105589;28;20071;-90
2021/08/22 08:51:51;;;;;;;8.82;5.00;;;;;;;26.82;40.00;93501.56;5109157;28;20702;-91
2021/08/22 08:54:20;;;;;;;12.50;5.00;;;;;;;26.84;38.68;93433.50;5091014;27;20055;-88
2021/08/22 08:56:47;;;;;;;9.23;4.85;;;;;;;27.17;39.55;93474.56;5109411;28;20484;-88
2021/08/22 08:59:16;;;;;;;8.25;4.78;;;;;;;27.69;37.97;93481.75;5109640;27;20053;-89
2021/08/22 09:01:44;;;;;;;7.65;4.93;;;;;;;27.55;37.50;93449.44;5109557;27;20083;-89
2021/08/22 09:04:25;;;;;;;12.60;5.00;;;;;;;27.68;35.05;93437.19;5109255;28;20063;-90
2021/08/22 09:07:38;;;;;;;10.73;5.13;;;;;;;27.25;35.61;93486.97;5108806;27;20685;-92
2021/08/22 09:10:42;;;;;;;9.30;4.90;;;;;;;27.43;36.07;93495.69;5109180;28;20787;-89
2021/08/22 09:13:44;;;;;;;7.65;4.72;;;;;;;26.90;35.48;93461.28;5109371;28;20048;-88
2021/08/22 09:17:15;;;;;;;14.18;5.00;;;;;;;26.87;34.98;93495.38;5113324;28;20051;-87
2021/08/22 09:20:37;;;;;;;6.28;4.28;;;;;;;27.86;36.59;93491.50;5018520;28;20045;-88
2021/08/22 09:23:49;;;;;;;9.30;4.90;;;;;;;27.58;34.48;93440.91;5039703;28;20160;-86
2021/08/22 09:27:09;;;;;;;7.40;4.82;;;;;;;26.56;35.03;93441.66;5114225;28;20420;-85
2021/08/22 09:30:09;;;;;;;11.73;4.57;;;;;;;27.56;34.75;93491.34;5113736;28;20051;-85
2021/08/22 09:33:28;;;;;;;15.65;5.55;;;;;;;28.23;34.71;93480.59;5119021;27;20124;-85
2021/08/22 09:36:31;;;;;;;11.85;5.10;;;;;;;28.71;33.83;93456.81;5133920;27;20414;-85
2021/08/22 09:39:35;;;;;;;9.13;4.65;;;;;;;29.42;32.99;93473.06;5133886;27;20087;-84
2021/08/22 09:42:40;;;;;;;7.97;4.45;;;;;;;29.81;31.96;93462.31;5134113;27;20047;-85
2021/08/22 09:45:44;;;;;;;16.35;4.60;;;;;;;30.23;31.41;93463.38;5117691;27;20051;-86
2021/08/22 09:48:54;;;;;;;10.57;4.82;;;;;;;30.58;29.76;93462.19;5134125;27;20043;-84
2021/08/22 09:52:11;;;;;;;5.75;4.60;;;;;;;30.51;27.98;93466.16;5133628;27;20047;-84
2021/08/22 09:55:22;;;;;;;7.65;4.65;;;;;;;30.82;30.24;93463.34;5130633;27;20595;-85
2021/08/22 09:58:30;;;;;;;9.80;4.22;;;;;;;31.32;28.56;93458.75;5133960;27;20059;-83
2021/08/22 10:01:17;;;;;;;6.95;3.50;;;;;;;31.36;29.76;93443.72;5098793;27;20396;-86
2021/08/22 10:04:10;;;;;;;9.60;4.40;;;;;;;30.88;30.40;93464.66;5133577;27;20039;-86
2021/08/22 10:07:01;;;;;;;7.38;3.92;;;;;;;31.26;30.04;93458.19;5118148;27;20047;-86
2021/08/22 10:09:29;;;;;;;6.53;4.13;;;;;;;31.09;29.26;93461.09;5112329;28;20057;-90
2021/08/22 10:11:57;;;;;;;7.35;3.97;;;;;;;31.41;29.71;93451.44;5112870;28;20069;-86
2021/08/22 10:14:25;;;;;;;11.95;4.30;;;;;;;31.42;29.72;93413.16;5112428;28;20135;-85
2021/08/22 10:16:54;;;;;;;7.93;4.00;;;;;;;30.26;30.01;93457.41;5112779;28;20088;-85
2021/08/22 10:19:24;;;;;;;9.27;4.03;;;;;;;29.58;31.61;93448.69;5125488;28;20059;-86
2021/08/22 10:22:12;;;;;;;7.70;4.32;;;;;;;29.05;31.16;93412.00;5123958;28;20496;-87
2021/08/22 10:24:56;;;;;;;7.65;4.55;;;;;;;29.05;31.17;93404.06;5113009;28;20047;-87
2021/08/22 10:27:52;;;;;;;6.68;4.30;;;;;;;29.38;31.56;93450.22;5111105;28;20438;-87
2021/08/22 10:30:23;;;;;;;7.90;4.38;;;;;;;28.57;31.31;93353.19;5112050;28;20044;-85
2021/08/22 10:33:14;;;;;;;8.15;5.45;;;;;;;27.56;33.00;93392.94;5119712;27;20059;-87
2021/08/22 10:35:41;;;;;;;6.32;4.70;;;;;;;27.08;34.03;93430.47;5132581;27;20051;-86
2021/08/22 10:38:23;;;;;;;7.70;4.28;;;;;;;26.58;34.94;93362.31;5120388;27;20071;-89
2021/08/22 10:40:50;;;;;;;8.45;5.10;;;;;;;27.55;34.65;93444.94;5109784;28;20043;-88
2021/08/22 10:43:38;;;;;;;7.18;4.85;;;;;;;27.79;33.85;93442.91;5111222;28;20067;-88
2021/08/22 10:46:05;;;;;;;6.80;4.60;;;;;;;27.96;33.16;93445.53;5109864;28;20051;-85
2021/08/22 10:48:55;;;;;;;18.58;5.07;;;;;;;28.66;33.87;93433.97;5105558;28;20071;-84
2021/08/22 10:51:26;;;;;;;11.95;4.57;;;;;;;28.85;32.01;93368.56;5111463;28;20051;-86
2021/08/22 10:54:21;;;;;;;7.43;4.50;;;;;;;29.20;30.39;93437.09;5111977;28;20059;-90
2021/08/22 10:56:48;;;;;;;8.70;5.45;;;;;;;29.15;30.78;93379.13;5098759;28;20133;-88
2021/08/22 10:59:15;;;;;;;5.88;4.30;;;;;;;29.34;29.63;93431.53;5091638;28;20048;-87
2021/08/22 11:01:43;;;;;;;10.57;4.40;;;;;;;29.90;29.98;93425.19;5091491;28;20040;-87
2021/08/22 11:04:13;;;;;;;7.95;4.68;;;;;;;30.44;29.53;93426.19;5091625;28;20048;-86
2021/08/22 11:06:55;;;;;;;10.95;4.80;;;;;;;30.92;28.10;93426.50;5106201;28;20101;-86
2021/08/22 11:09:36;;;;;;;5.18;3.92;;;;;;;30.53;29.53;93365.88;5111370;28;20051;-83
2021/08/22 11:12:03;;;;;;;5.97;4.80;;;;;;;30.47;29.67;93392.94;5111193;28;20127;-82
2021/08/22 11:14:30;;;;;;;6.75;4.38;;;;;;;30.38;29.41;93427.50;5111085;28;20047;-83
2021/08/22 11:17:00;;;;;;;7.20;4.70;;;;;;;29.92;28.97;93404.44;5111382;28;20054;-85
2021/08/22 11:19:28;;;;;;;11.13;4.90;;;;;;;28.89;31.24;93423.16;5111118;28;20042;-84
2021/08/22 11:21:55;;;;;;;10.48;5.00;;;;;;;27.81;32.80;93393.25;5111206;28;20047;-84
2021/08/22 11:24:21;;;;;;;8.65;4.63;;;;;;;27.31;33.46;93396.06;5110785;28;20401;-83
2021/08/22 11:27:00;;;;;;;8.52;4.75;;;;;;;27.87;31.77;93410.47;5111192;28;20047;-84
2021/08/22 11:29:27;;;;;;;12.02;5.10;;;;;;;28.26;32.16;93408.66;5110960;28;20513;-83
2021/08/22 11:32:02;;;;;;;7.97;5.20;;;;;;;28.63;31.63;93413.47;5110746;28;20057;-84
2021/08/22 11:34:31;;;;;;;12.43;5.13;;;;;;;28.84;30.65;93388.16;5090588;28;20044;-83
2021/08/22 11:37:14;;;;;;;7.18;4.57;;;;;;;28.30;31.56;93371.03;5090064;28;20403;-84
2021/08/22 11:39:41;;;;;;;5.53;4.38;;;;;;;27.39;32.92;93412.22;5090311;28;20043;-85
2021/08/22 11:42:09;;;;;;;7.97;4.97;;;;;;;26.92;33.50;93413.56;5090139;28;20059;-84
2021/08/22 11:44:36;;;;;;;8.30;5.90;;;;;;;27.21;33.40;93391.09;5090175;28;20044;-83
2021/08/22 11:47:03;;;;;;;5.60;4.70;;;;;;;26.89;33.17;93401.75;5090212;28;20422;-83